Station History

Weather Underground - logo

Station Historical Data
Daily Summary for October 13, 2017 Units:  Both    English   Metric
« Previous Day
Next Day »
Daily Weekly Monthly Yearly Custom
  High: Low: Average:
Temperature: 75.2 °F /  24 °C 43.6 °F /  6.4 °C 57.9 °F /  14.4 °C
Dew Point: 47.3 °F /  8.5 °C 38.8 °F /  3.8 °C 42.7 °F /  5.9 °C
Humidity: 87 % 28 % 61 %
Wind Speed: 3.5 mph /  5.6 km/h - 0.4 mph /  0.6 km/h
Wind Gust: 3.5 mph /  5.6 km/h - -
Wind:- - SW
Pressure: 30.12 in /  1019.9 hPa 30.01 in /  1016.1 hPa -
Precipitation: 0.00 in /  0 mm    
Historical Graphs
 
 
Tabular Data for October 13, 2017
Time Temperature Dew Point Pressure Wind Wind Speed Wind Gust Humidity Rainfall Rate (Hourly)
00:01 50.6 °F /  10.3 °C 43.3 °F /  6.3 °C 30.05 in /  1017.5 hPa Calm     76 % 0.00 in /  0 mm
00:06 50.2 °F /  10.1 °C 43.6 °F /  6.4 °C 30.05 in /  1017.5 hPa Calm     78 % 0.00 in /  0 mm
00:11 50.0 °F /  10 °C 43.4 °F /  6.3 °C 30.05 in /  1017.5 hPa Calm     78 % 0.00 in /  0 mm
00:16 49.7 °F /  9.8 °C 43.1 °F /  6.2 °C 30.05 in /  1017.5 hPa Calm     78 % 0.00 in /  0 mm
00:21 49.3 °F /  9.6 °C 43.1 °F /  6.2 °C 30.05 in /  1017.5 hPa Calm     79 % 0.00 in /  0 mm
00:26 48.8 °F /  9.3 °C 42.6 °F /  5.9 °C 30.05 in /  1017.5 hPa Calm     79 % 0.00 in /  0 mm
00:31 48.1 °F /  8.9 °C 42.2 °F /  5.7 °C 30.05 in /  1017.5 hPa Calm     80 % 0.00 in /  0 mm
00:36 47.8 °F /  8.8 °C 42.3 °F /  5.7 °C 30.05 in /  1017.5 hPa Calm     81 % 0.00 in /  0 mm
00:41 47.7 °F /  8.7 °C 42.2 °F /  5.7 °C 30.05 in /  1017.5 hPa Calm     81 % 0.00 in /  0 mm
00:46 47.7 °F /  8.7 °C 42.2 °F /  5.7 °C 30.05 in /  1017.5 hPa Calm     81 % 0.00 in /  0 mm
00:51 47.7 °F /  8.7 °C 41.8 °F /  5.4 °C 30.05 in /  1017.5 hPa Calm     80 % 0.00 in /  0 mm
00:56 47.9 °F /  8.8 °C 42.0 °F /  5.6 °C 30.06 in /  1017.8 hPa Calm     80 % 0.00 in /  0 mm
01:01 48.1 °F /  8.9 °C 41.9 °F /  5.5 °C 30.05 in /  1017.5 hPa Calm     79 % 0.00 in /  0 mm
01:06 48.2 °F /  9 °C 42.0 °F /  5.6 °C 30.06 in /  1017.8 hPa Calm     79 % 0.00 in /  0 mm
01:11 48.3 °F /  9.1 °C 42.4 °F /  5.8 °C 30.06 in /  1017.8 hPa Calm     80 % 0.00 in /  0 mm
01:16 48.1 °F /  8.9 °C 42.2 °F /  5.7 °C 30.06 in /  1017.8 hPa Calm     80 % 0.00 in /  0 mm
01:22 47.7 °F /  8.7 °C 41.8 °F /  5.4 °C 30.06 in /  1017.8 hPa Calm     80 % 0.00 in /  0 mm
01:27 47.2 °F /  8.4 °C 41.3 °F /  5.2 °C 30.06 in /  1017.8 hPa Calm     80 % 0.00 in /  0 mm
01:32 46.8 °F /  8.2 °C 41.3 °F /  5.2 °C 30.06 in /  1017.8 hPa Calm     81 % 0.00 in /  0 mm
01:37 46.6 °F /  8.1 °C 41.1 °F /  5.1 °C 30.06 in /  1017.8 hPa Calm     81 % 0.00 in /  0 mm
01:42 46.5 °F /  8.1 °C 41.3 °F /  5.2 °C 30.06 in /  1017.8 hPa Calm     82 % 0.00 in /  0 mm
01:47 46.4 °F /  8 °C 41.2 °F /  5.1 °C 30.06 in /  1017.8 hPa Calm     82 % 0.00 in /  0 mm
01:52 46.3 °F /  7.9 °C 41.7 °F /  5.4 °C 30.06 in /  1017.8 hPa Calm     84 % 0.00 in /  0 mm
01:57 46.4 °F /  8 °C 41.8 °F /  5.4 °C 30.06 in /  1017.8 hPa Calm     84 % 0.00 in /  0 mm
02:02 46.5 °F /  8.1 °C 41.9 °F /  5.5 °C 30.06 in /  1017.8 hPa Calm     84 % 0.00 in /  0 mm
02:07 46.5 °F /  8.1 °C 41.9 °F /  5.5 °C 30.07 in /  1018.2 hPa Calm     84 % 0.00 in /  0 mm
02:12 46.4 °F /  8 °C 41.8 °F /  5.4 °C 30.07 in /  1018.2 hPa Calm     84 % 0.00 in /  0 mm
02:17 46.4 °F /  8 °C 41.8 °F /  5.4 °C 30.07 in /  1018.2 hPa Calm     84 % 0.00 in /  0 mm
02:22 46.5 °F /  8.1 °C 42.2 °F /  5.7 °C 30.07 in /  1018.2 hPa Calm     85 % 0.00 in /  0 mm
02:27 46.4 °F /  8 °C 41.8 °F /  5.4 °C 30.07 in /  1018.2 hPa Calm     84 % 0.00 in /  0 mm
02:32 46.2 °F /  7.9 °C 41.6 °F /  5.3 °C 30.07 in /  1018.2 hPa Calm     84 % 0.00 in /  0 mm
02:37 46.0 °F /  7.8 °C 41.4 °F /  5.2 °C 30.07 in /  1018.2 hPa Calm     84 % 0.00 in /  0 mm
02:42 45.9 °F /  7.7 °C 41.6 °F /  5.3 °C 30.07 in /  1018.2 hPa Calm     85 % 0.00 in /  0 mm
02:47 46.0 °F /  7.8 °C 41.7 °F /  5.4 °C 30.07 in /  1018.2 hPa Calm     85 % 0.00 in /  0 mm
02:52 46.1 °F /  7.8 °C 42.1 °F /  5.6 °C 30.07 in /  1018.2 hPa Calm     86 % 0.00 in /  0 mm
02:57 46.3 °F /  7.9 °C 42.0 °F /  5.6 °C 30.07 in /  1018.2 hPa Calm     85 % 0.00 in /  0 mm
03:02 46.4 °F /  8 °C 42.1 °F /  5.6 °C 30.07 in /  1018.2 hPa Calm     85 % 0.00 in /  0 mm
03:07 46.6 °F /  8.1 °C 42.3 °F /  5.7 °C 30.07 in /  1018.2 hPa Calm     85 % 0.00 in /  0 mm
03:12 46.5 °F /  8.1 °C 41.6 °F /  5.3 °C 30.07 in /  1018.2 hPa Calm     83 % 0.00 in /  0 mm
03:17 46.5 °F /  8.1 °C 41.6 °F /  5.3 °C 30.07 in /  1018.2 hPa Calm     83 % 0.00 in /  0 mm
03:22 46.5 °F /  8.1 °C 41.6 °F /  5.3 °C 30.07 in /  1018.2 hPa Calm     83 % 0.00 in /  0 mm
03:27 46.5 °F /  8.1 °C 41.3 °F /  5.2 °C 30.07 in /  1018.2 hPa Calm     82 % 0.00 in /  0 mm
03:32 46.4 °F /  8 °C 41.2 °F /  5.1 °C 30.06 in /  1017.8 hPa Calm     82 % 0.00 in /  0 mm
03:37 46.7 °F /  8.2 °C 41.2 °F /  5.1 °C 30.06 in /  1017.8 hPa Calm     81 % 0.00 in /  0 mm
03:42 46.8 °F /  8.2 °C 41.0 °F /  5 °C 30.06 in /  1017.8 hPa Calm     80 % 0.00 in /  0 mm
03:47 46.7 °F /  8.2 °C 41.2 °F /  5.1 °C 30.06 in /  1017.8 hPa Calm     81 % 0.00 in /  0 mm
03:52 46.8 °F /  8.2 °C 41.3 °F /  5.2 °C 30.06 in /  1017.8 hPa Calm     81 % 0.00 in /  0 mm
03:57 46.8 °F /  8.2 °C 41.3 °F /  5.2 °C 30.06 in /  1017.8 hPa Calm     81 % 0.00 in /  0 mm
04:02 46.6 °F /  8.1 °C 41.1 °F /  5.1 °C 30.06 in /  1017.8 hPa Calm     81 % 0.00 in /  0 mm
04:07 46.2 °F /  7.9 °C 41.0 °F /  5 °C 30.06 in /  1017.8 hPa Calm     82 % 0.00 in /  0 mm
04:12 46.3 °F /  7.9 °C 41.1 °F /  5.1 °C 30.06 in /  1017.8 hPa Calm     82 % 0.00 in /  0 mm
04:17 46.5 °F /  8.1 °C 41.0 °F /  5 °C 30.06 in /  1017.8 hPa Calm     81 % 0.00 in /  0 mm
04:22 46.7 °F /  8.2 °C 41.2 °F /  5.1 °C 30.06 in /  1017.8 hPa Calm     81 % 0.00 in /  0 mm
04:27 46.9 °F /  8.3 °C 40.7 °F /  4.8 °C 30.06 in /  1017.8 hPa Calm   0.1 mph /  0.2 km/h 79 % 0.00 in /  0 mm
04:32 47.1 °F /  8.4 °C 40.6 °F /  4.8 °C 30.06 in /  1017.8 hPa Calm     78 % 0.00 in /  0 mm
04:37 47.2 °F /  8.4 °C 40.7 °F /  4.8 °C 30.06 in /  1017.8 hPa Calm     78 % 0.00 in /  0 mm
04:43 47.3 °F /  8.5 °C 40.5 °F /  4.7 °C 30.06 in /  1017.8 hPa Calm     77 % 0.00 in /  0 mm
04:48 47.0 °F /  8.3 °C 40.2 °F /  4.6 °C 30.07 in /  1018.2 hPa Calm     77 % 0.00 in /  0 mm
04:53 47.1 °F /  8.4 °C 39.9 °F /  4.4 °C 30.07 in /  1018.2 hPa Calm     76 % 0.00 in /  0 mm
04:58 46.7 °F /  8.2 °C 39.5 °F /  4.2 °C 30.07 in /  1018.2 hPa Calm     76 % 0.00 in /  0 mm
05:03 45.7 °F /  7.6 °C 38.9 °F /  3.8 °C 30.07 in /  1018.2 hPa Calm     77 % 0.00 in /  0 mm
05:08 45.0 °F /  7.2 °C 38.9 °F /  3.8 °C 30.07 in /  1018.2 hPa Calm     79 % 0.00 in /  0 mm
05:13 44.6 °F /  7 °C 39.1 °F /  3.9 °C 30.07 in /  1018.2 hPa Calm     81 % 0.00 in /  0 mm
05:18 44.5 °F /  6.9 °C 39.7 °F /  4.3 °C 30.07 in /  1018.2 hPa Calm     83 % 0.00 in /  0 mm
05:23 44.5 °F /  6.9 °C 40.6 °F /  4.8 °C 30.07 in /  1018.2 hPa Calm     86 % 0.00 in /  0 mm
05:28 44.1 °F /  6.7 °C 39.6 °F /  4.2 °C 30.07 in /  1018.2 hPa Calm     84 % 0.00 in /  0 mm
05:33 43.9 °F /  6.6 °C 39.4 °F /  4.1 °C 30.07 in /  1018.2 hPa Calm     84 % 0.00 in /  0 mm
05:38 43.7 °F /  6.5 °C 39.2 °F /  4 °C 30.07 in /  1018.2 hPa Calm     84 % 0.00 in /  0 mm
05:39 43.6 °F /  6.4 °C 39.1 °F /  3.9 °C 30.07 in /  1018.2 hPa Calm     84 % 0.00 in /  0 mm
05:44 43.6 °F /  6.4 °C 39.7 °F /  4.3 °C 30.07 in /  1018.2 hPa Calm     86 % 0.00 in /  0 mm
05:49 43.7 °F /  6.5 °C 40.1 °F /  4.5 °C 30.08 in /  1018.5 hPa Calm     87 % 0.00 in /  0 mm
05:54 43.7 °F /  6.5 °C 39.8 °F /  4.3 °C 30.08 in /  1018.5 hPa Calm     86 % 0.00 in /  0 mm
05:59 43.7 °F /  6.5 °C 40.1 °F /  4.5 °C 30.08 in /  1018.5 hPa Calm     87 % 0.00 in /  0 mm
06:04 43.9 °F /  6.6 °C 40.0 °F /  4.4 °C 30.08 in /  1018.5 hPa Calm     86 % 0.00 in /  0 mm
06:09 44.0 °F /  6.7 °C 40.1 °F /  4.5 °C 30.08 in /  1018.5 hPa Calm     86 % 0.00 in /  0 mm
06:14 44.0 °F /  6.7 °C 39.8 °F /  4.3 °C 30.08 in /  1018.5 hPa Calm     85 % 0.00 in /  0 mm
06:19 44.0 °F /  6.7 °C 39.8 °F /  4.3 °C 30.08 in /  1018.5 hPa Calm     85 % 0.00 in /  0 mm
06:24 44.0 °F /  6.7 °C 39.8 °F /  4.3 °C 30.09 in /  1018.8 hPa Calm     85 % 0.00 in /  0 mm
06:29 44.0 °F /  6.7 °C 40.1 °F /  4.5 °C 30.09 in /  1018.8 hPa Calm     86 % 0.00 in /  0 mm
06:34 44.1 °F /  6.7 °C 40.2 °F /  4.6 °C 30.09 in /  1018.8 hPa Calm     86 % 0.00 in /  0 mm
06:39 44.0 °F /  6.7 °C 40.1 °F /  4.5 °C 30.08 in /  1018.5 hPa Calm     86 % 0.00 in /  0 mm
06:44 43.9 °F /  6.6 °C 40.0 °F /  4.4 °C 30.09 in /  1018.8 hPa Calm     86 % 0.00 in /  0 mm
06:49 44.0 °F /  6.7 °C 40.4 °F /  4.7 °C 30.09 in /  1018.8 hPa Calm     87 % 0.00 in /  0 mm
06:54 44.1 °F /  6.7 °C 40.2 °F /  4.6 °C 30.09 in /  1018.8 hPa Calm     86 % 0.00 in /  0 mm
06:59 44.0 °F /  6.7 °C 39.8 °F /  4.3 °C 30.09 in /  1018.8 hPa Calm     85 % 0.00 in /  0 mm
07:04 44.4 °F /  6.9 °C 39.6 °F /  4.2 °C 30.09 in /  1018.8 hPa Calm     83 % 0.00 in /  0 mm
07:09 44.5 °F /  6.9 °C 39.7 °F /  4.3 °C 30.09 in /  1018.8 hPa Calm     83 % 0.00 in /  0 mm
07:14 44.7 °F /  7.1 °C 39.9 °F /  4.4 °C 30.09 in /  1018.8 hPa Calm     83 % 0.00 in /  0 mm
07:19 44.7 °F /  7.1 °C 39.9 °F /  4.4 °C 30.09 in /  1018.8 hPa Calm     83 % 0.00 in /  0 mm
07:24 44.5 °F /  6.9 °C 39.7 °F /  4.3 °C 30.09 in /  1018.8 hPa Calm     83 % 0.00 in /  0 mm
07:30 44.3 °F /  6.8 °C 39.5 °F /  4.2 °C 30.09 in /  1018.8 hPa Calm     83 % 0.00 in /  0 mm
07:35 44.1 °F /  6.7 °C 39.6 °F /  4.2 °C 30.09 in /  1018.8 hPa Calm     84 % 0.00 in /  0 mm
07:40 44.2 °F /  6.8 °C 40.0 °F /  4.4 °C 30.10 in /  1019.2 hPa Calm     85 % 0.00 in /  0 mm
07:45 44.6 °F /  7 °C 40.4 °F /  4.7 °C 30.10 in /  1019.2 hPa Calm     85 % 0.00 in /  0 mm
07:50 44.8 °F /  7.1 °C 40.3 °F /  4.6 °C 30.10 in /  1019.2 hPa Calm     84 % 0.00 in /  0 mm
07:55 45.4 °F /  7.4 °C 39.9 °F /  4.4 °C 30.10 in /  1019.2 hPa Calm     81 % 0.00 in /  0 mm
08:00 45.8 °F /  7.7 °C 40.3 °F /  4.6 °C 30.10 in /  1019.2 hPa Calm     81 % 0.00 in /  0 mm
08:05 46.3 °F /  7.9 °C 40.8 °F /  4.9 °C 30.10 in /  1019.2 hPa Calm     81 % 0.00 in /  0 mm
08:10 46.9 °F /  8.3 °C 41.4 °F /  5.2 °C 30.10 in /  1019.2 hPa Calm     81 % 0.00 in /  0 mm
08:15 47.6 °F /  8.7 °C 42.4 °F /  5.8 °C 30.10 in /  1019.2 hPa Calm     82 % 0.00 in /  0 mm
08:20 48.5 °F /  9.2 °C 43.3 °F /  6.3 °C 30.10 in /  1019.2 hPa Calm     82 % 0.00 in /  0 mm
08:25 49.7 °F /  9.8 °C 43.1 °F /  6.2 °C 30.10 in /  1019.2 hPa Calm     78 % 0.00 in /  0 mm
08:30 51.6 °F /  10.9 °C 44.6 °F /  7 °C 30.10 in /  1019.2 hPa Calm     77 % 0.00 in /  0 mm
08:35 53.1 °F /  11.7 °C 45.4 °F /  7.4 °C 30.10 in /  1019.2 hPa Calm     75 % 0.00 in /  0 mm
08:40 54.3 °F /  12.4 °C 44.7 °F /  7.1 °C 30.10 in /  1019.2 hPa Calm     70 % 0.00 in /  0 mm
08:42 54.8 °F /  12.7 °C 44.8 °F /  7.1 °C 30.10 in /  1019.2 hPa Calm     69 % 0.00 in /  0 mm
08:47 55.3 °F /  12.9 °C 43.3 °F /  6.3 °C 30.11 in /  1019.5 hPa Calm     64 % 0.00 in /  0 mm
08:52 55.7 °F /  13.2 °C 43.3 °F /  6.3 °C 30.11 in /  1019.5 hPa Calm     63 % 0.00 in /  0 mm
08:53 55.9 °F /  13.3 °C 43.5 °F /  6.4 °C 30.11 in /  1019.5 hPa Calm     63 % 0.00 in /  0 mm
08:58 56.8 °F /  13.8 °C 43.5 °F /  6.4 °C 30.11 in /  1019.5 hPa Calm     61 % 0.00 in /  0 mm
09:03 56.2 °F /  13.4 °C 42.1 °F /  5.6 °C 30.11 in /  1019.5 hPa Calm     59 % 0.00 in /  0 mm
09:04 56.2 °F /  13.4 °C 42.5 °F /  5.8 °C 30.11 in /  1019.5 hPa Calm   0.1 mph /  0.2 km/h 60 % 0.00 in /  0 mm
09:09 56.3 °F /  13.5 °C 43.4 °F /  6.3 °C 30.11 in /  1019.5 hPa Calm     62 % 0.00 in /  0 mm
09:14 57.2 °F /  14 °C 43.9 °F /  6.6 °C 30.11 in /  1019.5 hPa Calm     61 % 0.00 in /  0 mm
09:19 58.0 °F /  14.4 °C 44.2 °F /  6.8 °C 30.12 in /  1019.9 hPa NNW 1.2 mph /  1.9 km/h 1.2 mph /  1.9 km/h 60 % 0.00 in /  0 mm
09:24 58.0 °F /  14.4 °C 44.2 °F /  6.8 °C 30.12 in /  1019.9 hPa NNW 1.2 mph /  1.9 km/h 1.2 mph /  1.9 km/h 60 % 0.00 in /  0 mm
09:29 57.6 °F /  14.2 °C 44.2 °F /  6.8 °C 30.12 in /  1019.9 hPa WNW 1.2 mph /  1.9 km/h   61 % 0.00 in /  0 mm
09:34 57.8 °F /  14.3 °C 45.7 °F /  7.6 °C 30.12 in /  1019.9 hPa Calm     64 % 0.00 in /  0 mm
09:39 58.8 °F /  14.9 °C 44.0 °F /  6.7 °C 30.12 in /  1019.9 hPa North 1.2 mph /  1.9 km/h   58 % 0.00 in /  0 mm
09:44 59.3 °F /  15.2 °C 45.0 °F /  7.2 °C 30.12 in /  1019.9 hPa Calm     59 % 0.00 in /  0 mm
09:49 60.1 °F /  15.6 °C 43.4 °F /  6.3 °C 30.12 in /  1019.9 hPa SSE 1.2 mph /  1.9 km/h   54 % 0.00 in /  0 mm
09:54 60.8 °F /  16 °C 43.1 °F /  6.2 °C 30.12 in /  1019.9 hPa Calm     52 % 0.00 in /  0 mm
09:59 61.4 °F /  16.3 °C 43.1 °F /  6.2 °C 30.12 in /  1019.9 hPa Calm   0.2 mph /  0.3 km/h 51 % 0.00 in /  0 mm
10:04 61.9 °F /  16.6 °C 41.4 °F /  5.2 °C 30.12 in /  1019.9 hPa NW 1.2 mph /  1.9 km/h   47 % 0.00 in /  0 mm
10:09 62.0 °F /  16.7 °C 41.5 °F /  5.3 °C 30.12 in /  1019.9 hPa Calm   0.3 mph /  0.5 km/h 47 % 0.00 in /  0 mm
10:14 62.8 °F /  17.1 °C 41.7 °F /  5.4 °C 30.12 in /  1019.9 hPa SE 1.2 mph /  1.9 km/h 1.2 mph /  1.9 km/h 46 % 0.00 in /  0 mm
10:19 63.7 °F /  17.6 °C 41.4 °F /  5.2 °C 30.12 in /  1019.9 hPa SE 1.2 mph /  1.9 km/h   44 % 0.00 in /  0 mm
10:24 64.0 °F /  17.8 °C 42.2 °F /  5.7 °C 30.12 in /  1019.9 hPa Calm   0.1 mph /  0.2 km/h 45 % 0.00 in /  0 mm
10:30 64.5 °F /  18.1 °C 40.9 °F /  4.9 °C 30.12 in /  1019.9 hPa North 1.2 mph /  1.9 km/h 1.2 mph /  1.9 km/h 42 % 0.00 in /  0 mm
10:35 64.6 °F /  18.1 °C 40.4 °F /  4.7 °C 30.12 in /  1019.9 hPa SE 2.3 mph /  3.7 km/h   41 % 0.00 in /  0 mm
10:40 65.1 °F /  18.4 °C 41.4 °F /  5.2 °C 30.12 in /  1019.9 hPa Calm   0.5 mph /  0.8 km/h 42 % 0.00 in /  0 mm
10:45 65.4 °F /  18.6 °C 40.4 °F /  4.7 °C 30.12 in /  1019.9 hPa NW 1.2 mph /  1.9 km/h   40 % 0.00 in /  0 mm
10:50 65.8 °F /  18.8 °C 42.1 °F /  5.6 °C 30.12 in /  1019.9 hPa ESE 3.0 mph /  4.8 km/h 3.0 mph /  4.8 km/h 42 % 0.00 in /  0 mm
10:55 66.2 °F /  19 °C 42.4 °F /  5.8 °C 30.12 in /  1019.9 hPa Calm     42 % 0.00 in /  0 mm
11:00 67.0 °F /  19.4 °C 42.5 °F /  5.8 °C 30.12 in /  1019.9 hPa NW 1.2 mph /  1.9 km/h 1.2 mph /  1.9 km/h 41 % 0.00 in /  0 mm
11:05 66.9 °F /  19.4 °C 41.1 °F /  5.1 °C 30.12 in /  1019.9 hPa NNW 1.2 mph /  1.9 km/h 1.2 mph /  1.9 km/h 39 % 0.00 in /  0 mm
11:10 67.3 °F /  19.6 °C 41.5 °F /  5.3 °C 30.12 in /  1019.9 hPa WSW 1.2 mph /  1.9 km/h   39 % 0.00 in /  0 mm
11:15 67.8 °F /  19.9 °C 41.3 °F /  5.2 °C 30.12 in /  1019.9 hPa Calm     38 % 0.00 in /  0 mm
11:20 68.2 °F /  20.1 °C 41.6 °F /  5.3 °C 30.11 in /  1019.5 hPa SSE 2.3 mph /  3.7 km/h 2.3 mph /  3.7 km/h 38 % 0.00 in /  0 mm
11:25 68.5 °F /  20.3 °C 41.9 °F /  5.5 °C 30.11 in /  1019.5 hPa ESE 2.3 mph /  3.7 km/h 2.3 mph /  3.7 km/h 38 % 0.00 in /  0 mm
11:30 68.3 °F /  20.2 °C 41.0 °F /  5 °C 30.11 in /  1019.5 hPa SSE 3.5 mph /  5.6 km/h 3.5 mph /  5.6 km/h 37 % 0.00 in /  0 mm
11:35 68.7 °F /  20.4 °C 40.7 °F /  4.8 °C 30.11 in /  1019.5 hPa NNW 1.2 mph /  1.9 km/h 1.2 mph /  1.9 km/h 36 % 0.00 in /  0 mm
11:40 68.7 °F /  20.4 °C 39.2 °F /  4 °C 30.11 in /  1019.5 hPa NW 1.2 mph /  1.9 km/h   34 % 0.00 in /  0 mm
11:45 69.0 °F /  20.6 °C 40.9 °F /  4.9 °C 30.11 in /  1019.5 hPa SSW 2.3 mph /  3.7 km/h 2.3 mph /  3.7 km/h 36 % 0.00 in /  0 mm
11:50 69.5 °F /  20.8 °C 41.4 °F /  5.2 °C 30.11 in /  1019.5 hPa SSW 2.3 mph /  3.7 km/h 2.3 mph /  3.7 km/h 36 % 0.00 in /  0 mm
11:55 70.2 °F /  21.2 °C 42.0 °F /  5.6 °C 30.11 in /  1019.5 hPa NNE 1.2 mph /  1.9 km/h 1.2 mph /  1.9 km/h 36 % 0.00 in /  0 mm
12:00 70.6 °F /  21.4 °C 41.6 °F /  5.3 °C 30.11 in /  1019.5 hPa WNW 1.2 mph /  1.9 km/h 1.2 mph /  1.9 km/h 35 % 0.00 in /  0 mm
12:05 70.5 °F /  21.4 °C 40.8 °F /  4.9 °C 30.11 in /  1019.5 hPa NW 2.3 mph /  3.7 km/h 2.3 mph /  3.7 km/h 34 % 0.00 in /  0 mm
12:10 70.7 °F /  21.5 °C 40.9 °F /  4.9 °C 30.10 in /  1019.2 hPa North 1.2 mph /  1.9 km/h 1.2 mph /  1.9 km/h 34 % 0.00 in /  0 mm
12:15 70.7 °F /  21.5 °C 41.7 °F /  5.4 °C 30.10 in /  1019.2 hPa ESE 2.0 mph /  3.2 km/h 2.0 mph /  3.2 km/h 35 % 0.00 in /  0 mm
12:20 71.0 °F /  21.7 °C 40.4 °F /  4.7 °C 30.10 in /  1019.2 hPa North 2.3 mph /  3.7 km/h 2.3 mph /  3.7 km/h 33 % 0.00 in /  0 mm
12:25 70.7 °F /  21.5 °C 40.2 °F /  4.6 °C 30.10 in /  1019.2 hPa North 1.2 mph /  1.9 km/h 1.2 mph /  1.9 km/h 33 % 0.00 in /  0 mm
12:30 70.9 °F /  21.6 °C 40.3 °F /  4.6 °C 30.09 in /  1018.8 hPa NNW 2.3 mph /  3.7 km/h 2.3 mph /  3.7 km/h 33 % 0.00 in /  0 mm
12:35 71.0 °F /  21.7 °C 41.2 °F /  5.1 °C 30.09 in /  1018.8 hPa WNW 1.2 mph /  1.9 km/h 1.2 mph /  1.9 km/h 34 % 0.00 in /  0 mm
12:40 71.5 °F /  21.9 °C 42.4 °F /  5.8 °C 30.09 in /  1018.8 hPa NW 1.2 mph /  1.9 km/h 1.2 mph /  1.9 km/h 35 % 0.00 in /  0 mm
12:45 72.2 °F /  22.3 °C 43.0 °F /  6.1 °C 30.08 in /  1018.5 hPa East 3.5 mph /  5.6 km/h 3.5 mph /  5.6 km/h 35 % 0.00 in /  0 mm
12:50 72.6 °F /  22.6 °C 42.6 °F /  5.9 °C 30.08 in /  1018.5 hPa South 3.5 mph /  5.6 km/h   34 % 0.00 in /  0 mm
12:55 73.1 °F /  22.8 °C 43.1 °F /  6.2 °C 30.08 in /  1018.5 hPa NNW 2.3 mph /  3.7 km/h 2.3 mph /  3.7 km/h 34 % 0.00 in /  0 mm
13:00 73.1 °F /  22.8 °C 41.5 °F /  5.3 °C 30.08 in /  1018.5 hPa NNW 2.3 mph /  3.7 km/h 2.3 mph /  3.7 km/h 32 % 0.00 in /  0 mm
13:05 72.8 °F /  22.7 °C 42.8 °F /  6 °C 30.08 in /  1018.5 hPa North 2.3 mph /  3.7 km/h 2.3 mph /  3.7 km/h 34 % 0.00 in /  0 mm
13:10 73.3 °F /  22.9 °C 43.2 °F /  6.2 °C 30.07 in /  1018.2 hPa NNW 2.3 mph /  3.7 km/h   34 % 0.00 in /  0 mm
13:15 73.5 °F /  23.1 °C 41.8 °F /  5.4 °C 30.07 in /  1018.2 hPa South 1.2 mph /  1.9 km/h   32 % 0.00 in /  0 mm
13:21 73.1 °F /  22.8 °C 41.5 °F /  5.3 °C 30.07 in /  1018.2 hPa NNW 2.3 mph /  3.7 km/h 2.3 mph /  3.7 km/h 32 % 0.00 in /  0 mm
13:26 73.1 °F /  22.8 °C 42.3 °F /  5.7 °C 30.06 in /  1017.8 hPa NE 2.3 mph /  3.7 km/h 2.3 mph /  3.7 km/h 33 % 0.00 in /  0 mm
13:31 73.5 °F /  23.1 °C 42.6 °F /  5.9 °C 30.06 in /  1017.8 hPa WNW 2.3 mph /  3.7 km/h 2.3 mph /  3.7 km/h 33 % 0.00 in /  0 mm
13:36 73.0 °F /  22.8 °C 42.2 °F /  5.7 °C 30.06 in /  1017.8 hPa West 3.5 mph /  5.6 km/h 3.5 mph /  5.6 km/h 33 % 0.00 in /  0 mm
13:41 73.0 °F /  22.8 °C 42.2 °F /  5.7 °C 30.06 in /  1017.8 hPa WSW 2.3 mph /  3.7 km/h 2.3 mph /  3.7 km/h 33 % 0.00 in /  0 mm
13:46 73.3 °F /  22.9 °C 40.8 °F /  4.9 °C 30.06 in /  1017.8 hPa NW 1.2 mph /  1.9 km/h 1.2 mph /  1.9 km/h 31 % 0.00 in /  0 mm
13:51 73.4 °F /  23 °C 42.5 °F /  5.8 °C 30.05 in /  1017.5 hPa SE 2.3 mph /  3.7 km/h 2.3 mph /  3.7 km/h 33 % 0.00 in /  0 mm
13:56 73.4 °F /  23 °C 42.5 °F /  5.8 °C 30.05 in /  1017.5 hPa West 1.2 mph /  1.9 km/h 1.2 mph /  1.9 km/h 33 % 0.00 in /  0 mm
14:01 73.3 °F /  22.9 °C 40.8 °F /  4.9 °C 30.05 in /  1017.5 hPa NNW 2.3 mph /  3.7 km/h 2.3 mph /  3.7 km/h 31 % 0.00 in /  0 mm
14:06 73.3 °F /  22.9 °C 44.0 °F /  6.7 °C 30.05 in /  1017.5 hPa WNW 1.2 mph /  1.9 km/h 1.2 mph /  1.9 km/h 35 % 0.00 in /  0 mm
14:11 73.4 °F /  23 °C 40.9 °F /  4.9 °C 30.05 in /  1017.5 hPa West 1.2 mph /  1.9 km/h 1.2 mph /  1.9 km/h 31 % 0.00 in /  0 mm
14:16 73.8 °F /  23.2 °C 40.4 °F /  4.7 °C 30.04 in /  1017.2 hPa ENE 1.2 mph /  1.9 km/h 1.2 mph /  1.9 km/h 30 % 0.00 in /  0 mm
14:21 73.7 °F /  23.2 °C 42.0 °F /  5.6 °C 30.04 in /  1017.2 hPa WNW 2.3 mph /  3.7 km/h 2.3 mph /  3.7 km/h 32 % 0.00 in /  0 mm
14:26 74.1 °F /  23.4 °C 41.5 °F /  5.3 °C 30.04 in /  1017.2 hPa North 1.2 mph /  1.9 km/h 1.2 mph /  1.9 km/h 31 % 0.00 in /  0 mm
14:31 74.4 °F /  23.6 °C 42.6 °F /  5.9 °C 30.04 in /  1017.2 hPa Calm     32 % 0.00 in /  0 mm
14:36 75.0 °F /  23.9 °C 43.1 °F /  6.2 °C 30.03 in /  1016.8 hPa WNW 1.2 mph /  1.9 km/h   32 % 0.00 in /  0 mm
14:41 75.2 °F /  24 °C 41.6 °F /  5.3 °C 30.03 in /  1016.8 hPa NW 2.3 mph /  3.7 km/h 2.3 mph /  3.7 km/h 30 % 0.00 in /  0 mm
14:46 74.5 °F /  23.6 °C 41.0 °F /  5 °C 30.03 in /  1016.8 hPa NW 2.3 mph /  3.7 km/h 2.3 mph /  3.7 km/h 30 % 0.00 in /  0 mm
14:51 74.0 °F /  23.3 °C 40.6 °F /  4.8 °C 30.03 in /  1016.8 hPa WNW 2.3 mph /  3.7 km/h 2.3 mph /  3.7 km/h 30 % 0.00 in /  0 mm
14:56 74.0 °F /  23.3 °C 40.6 °F /  4.8 °C 30.03 in /  1016.8 hPa NW 2.3 mph /  3.7 km/h 2.3 mph /  3.7 km/h 30 % 0.00 in /  0 mm
15:01 73.9 °F /  23.3 °C 41.3 °F /  5.2 °C 30.03 in /  1016.8 hPa WNW 1.2 mph /  1.9 km/h   31 % 0.00 in /  0 mm
15:06 74.0 °F /  23.3 °C 41.4 °F /  5.2 °C 30.03 in /  1016.8 hPa NW 1.0 mph /  1.6 km/h 1.0 mph /  1.6 km/h 31 % 0.00 in /  0 mm
15:11 74.6 °F /  23.7 °C 42.0 °F /  5.6 °C 30.03 in /  1016.8 hPa Calm     31 % 0.00 in /  0 mm
15:16 74.6 °F /  23.7 °C 40.2 °F /  4.6 °C 30.03 in /  1016.8 hPa NW 1.2 mph /  1.9 km/h 1.2 mph /  1.9 km/h 29 % 0.00 in /  0 mm
15:21 74.5 °F /  23.6 °C 41.0 °F /  5 °C 30.02 in /  1016.5 hPa Calm   0.2 mph /  0.3 km/h 30 % 0.00 in /  0 mm
15:26 74.6 °F /  23.7 °C 42.0 °F /  5.6 °C 30.02 in /  1016.5 hPa NW 3.0 mph /  4.8 km/h 3.0 mph /  4.8 km/h 31 % 0.00 in /  0 mm
15:31 74.2 °F /  23.4 °C 39.9 °F /  4.4 °C 30.02 in /  1016.5 hPa WNW 3.5 mph /  5.6 km/h 3.5 mph /  5.6 km/h 29 % 0.00 in /  0 mm
15:36 73.9 °F /  23.3 °C 39.6 °F /  4.2 °C 30.02 in /  1016.5 hPa Calm     29 % 0.00 in /  0 mm
15:41 74.0 °F /  23.3 °C 38.8 °F /  3.8 °C 30.02 in /  1016.5 hPa Calm     28 % 0.00 in /  0 mm
15:46 74.2 °F /  23.4 °C 39.9 °F /  4.4 °C 30.02 in /  1016.5 hPa NNE 1.2 mph /  1.9 km/h 1.2 mph /  1.9 km/h 29 % 0.00 in /  0 mm
15:51 74.5 °F /  23.6 °C 41.0 °F /  5 °C 30.02 in /  1016.5 hPa South 1.2 mph /  1.9 km/h 1.2 mph /  1.9 km/h 30 % 0.00 in /  0 mm
15:56 74.7 °F /  23.7 °C 42.9 °F /  6.1 °C 30.02 in /  1016.5 hPa Calm     32 % 0.00 in /  0 mm
16:01 74.6 °F /  23.7 °C 42.0 °F /  5.6 °C 30.02 in /  1016.5 hPa West 1.2 mph /  1.9 km/h   31 % 0.00 in /  0 mm
16:06 74.6 °F /  23.7 °C 41.1 °F /  5.1 °C 30.02 in /  1016.5 hPa WNW 1.2 mph /  1.9 km/h   30 % 0.00 in /  0 mm
16:11 74.5 °F /  23.6 °C 41.9 °F /  5.5 °C 30.02 in /  1016.5 hPa East 1.2 mph /  1.9 km/h 1.2 mph /  1.9 km/h 31 % 0.00 in /  0 mm
16:16 74.2 °F /  23.4 °C 42.4 °F /  5.8 °C 30.02 in /  1016.5 hPa North 1.2 mph /  1.9 km/h 1.2 mph /  1.9 km/h 32 % 0.00 in /  0 mm
16:21 74.0 °F /  23.3 °C 42.3 °F /  5.7 °C 30.02 in /  1016.5 hPa WSW 1.2 mph /  1.9 km/h   32 % 0.00 in /  0 mm
16:26 73.9 °F /  23.3 °C 41.3 °F /  5.2 °C 30.02 in /  1016.5 hPa Calm     31 % 0.00 in /  0 mm
16:31 73.6 °F /  23.1 °C 41.9 °F /  5.5 °C 30.02 in /  1016.5 hPa NW 1.0 mph /  1.6 km/h 1.0 mph /  1.6 km/h 32 % 0.00 in /  0 mm
16:36 73.4 °F /  23 °C 40.1 °F /  4.5 °C 30.01 in /  1016.1 hPa NNW 1.2 mph /  1.9 km/h   30 % 0.00 in /  0 mm
16:41 73.1 °F /  22.8 °C 41.5 °F /  5.3 °C 30.02 in /  1016.5 hPa Calm   0.3 mph /  0.5 km/h 32 % 0.00 in /  0 mm
16:46 72.9 °F /  22.7 °C 40.5 °F /  4.7 °C 30.02 in /  1016.5 hPa Calm     31 % 0.00 in /  0 mm
16:51 72.8 °F /  22.7 °C 40.4 °F /  4.7 °C 30.01 in /  1016.1 hPa Calm     31 % 0.00 in /  0 mm
16:56 72.8 °F /  22.7 °C 41.2 °F /  5.1 °C 30.01 in /  1016.1 hPa SE 2.0 mph /  3.2 km/h 2.0 mph /  3.2 km/h 32 % 0.00 in /  0 mm
17:01 72.6 °F /  22.6 °C 41.0 °F /  5 °C 30.01 in /  1016.1 hPa Calm     32 % 0.00 in /  0 mm
17:06 72.4 °F /  22.4 °C 42.4 °F /  5.8 °C 30.01 in /  1016.1 hPa Calm     34 % 0.00 in /  0 mm
17:11 72.2 °F /  22.3 °C 41.5 °F /  5.3 °C 30.01 in /  1016.1 hPa Calm     33 % 0.00 in /  0 mm
17:16 72.1 °F /  22.3 °C 41.4 °F /  5.2 °C 30.01 in /  1016.1 hPa Calm     33 % 0.00 in /  0 mm
17:21 71.9 °F /  22.2 °C 42.8 °F /  6 °C 30.01 in /  1016.1 hPa Calm     35 % 0.00 in /  0 mm
17:26 71.6 °F /  22 °C 42.5 °F /  5.8 °C 30.01 in /  1016.1 hPa Calm     35 % 0.00 in /  0 mm
17:32 71.3 °F /  21.8 °C 43.0 °F /  6.1 °C 30.01 in /  1016.1 hPa Calm     36 % 0.00 in /  0 mm
17:37 71.0 °F /  21.7 °C 44.1 °F /  6.7 °C 30.01 in /  1016.1 hPa Calm     38 % 0.00 in /  0 mm
17:42 70.7 °F /  21.5 °C 43.8 °F /  6.6 °C 30.01 in /  1016.1 hPa Calm     38 % 0.00 in /  0 mm
17:47 70.2 °F /  21.2 °C 44.1 °F /  6.7 °C 30.01 in /  1016.1 hPa Calm     39 % 0.00 in /  0 mm
17:52 69.6 °F /  20.9 °C 44.2 °F /  6.8 °C 30.01 in /  1016.1 hPa Calm     40 % 0.00 in /  0 mm
17:57 69.0 °F /  20.6 °C 44.9 °F /  7.2 °C 30.01 in /  1016.1 hPa Calm     42 % 0.00 in /  0 mm
18:02 68.4 °F /  20.2 °C 44.4 °F /  6.9 °C 30.01 in /  1016.1 hPa Calm     42 % 0.00 in /  0 mm
18:07 67.9 °F /  19.9 °C 45.2 °F /  7.3 °C 30.01 in /  1016.1 hPa Calm     44 % 0.00 in /  0 mm
18:12 67.3 °F /  19.6 °C 46.4 °F /  8 °C 30.01 in /  1016.1 hPa Calm     47 % 0.00 in /  0 mm
18:16 66.6 °F /  19.2 °C 46.3 °F /  7.9 °C 30.01 in /  1016.1 hPa Calm     48 % 0.00 in /  0 mm
18:22 66.0 °F /  18.9 °C 46.8 °F /  8.2 °C 30.01 in /  1016.1 hPa Calm     50 % 0.00 in /  0 mm
18:27 65.3 °F /  18.5 °C 46.7 °F /  8.2 °C 30.01 in /  1016.1 hPa Calm     51 % 0.00 in /  0 mm
18:31 64.6 °F /  18.1 °C 47.1 °F /  8.4 °C 30.01 in /  1016.1 hPa Calm     53 % 0.00 in /  0 mm
18:37 64.0 °F /  17.8 °C 47.0 °F /  8.3 °C 30.01 in /  1016.1 hPa Calm     54 % 0.00 in /  0 mm
18:42 63.5 °F /  17.5 °C 46.1 °F /  7.8 °C 30.01 in /  1016.1 hPa Calm     53 % 0.00 in /  0 mm
18:47 63.0 °F /  17.2 °C 46.1 °F /  7.8 °C 30.01 in /  1016.1 hPa Calm     54 % 0.00 in /  0 mm
18:52 62.6 °F /  17 °C 47.1 °F /  8.4 °C 30.02 in /  1016.5 hPa Calm     57 % 0.00 in /  0 mm
18:57 62.4 °F /  16.9 °C 46.5 °F /  8.1 °C 30.01 in /  1016.1 hPa Calm     56 % 0.00 in /  0 mm
19:02 62.0 °F /  16.7 °C 46.6 °F /  8.1 °C 30.02 in /  1016.5 hPa Calm     57 % 0.00 in /  0 mm
19:07 61.7 °F /  16.5 °C 47.2 °F /  8.4 °C 30.02 in /  1016.5 hPa Calm     59 % 0.00 in /  0 mm
19:12 61.3 °F /  16.3 °C 46.4 °F /  8 °C 30.02 in /  1016.5 hPa Calm     58 % 0.00 in /  0 mm
19:17 61.0 °F /  16.1 °C 46.6 °F /  8.1 °C 30.02 in /  1016.5 hPa Calm     59 % 0.00 in /  0 mm
19:22 60.6 °F /  15.9 °C 46.6 °F /  8.1 °C 30.02 in /  1016.5 hPa Calm     60 % 0.00 in /  0 mm
19:27 60.6 °F /  15.9 °C 47.1 °F /  8.4 °C 30.03 in /  1016.8 hPa Calm     61 % 0.00 in /  0 mm
19:32 60.3 °F /  15.7 °C 46.4 °F /  8 °C 30.03 in /  1016.8 hPa Calm     60 % 0.00 in /  0 mm
19:37 59.9 °F /  15.5 °C 46.4 °F /  8 °C 30.03 in /  1016.8 hPa Calm     61 % 0.00 in /  0 mm
19:42 59.8 °F /  15.4 °C 46.7 °F /  8.2 °C 30.03 in /  1016.8 hPa Calm     62 % 0.00 in /  0 mm
19:47 59.7 °F /  15.4 °C 46.7 °F /  8.2 °C 30.03 in /  1016.8 hPa Calm     62 % 0.00 in /  0 mm
19:52 59.5 °F /  15.3 °C 46.9 °F /  8.3 °C 30.03 in /  1016.8 hPa Calm     63 % 0.00 in /  0 mm
19:57 59.0 °F /  15 °C 47.2 °F /  8.4 °C 30.03 in /  1016.8 hPa Calm     65 % 0.00 in /  0 mm
20:02 58.6 °F /  14.8 °C 47.3 °F /  8.5 °C 30.04 in /  1017.2 hPa Calm     66 % 0.00 in /  0 mm
20:07 58.2 °F /  14.6 °C 46.9 °F /  8.3 °C 30.04 in /  1017.2 hPa Calm     66 % 0.00 in /  0 mm
20:12 58.0 °F /  14.4 °C 45.9 °F /  7.7 °C 30.04 in /  1017.2 hPa Calm     64 % 0.00 in /  0 mm
20:17 57.8 °F /  14.3 °C 46.5 °F /  8.1 °C 30.04 in /  1017.2 hPa Calm     66 % 0.00 in /  0 mm
20:22 57.6 °F /  14.2 °C 45.9 °F /  7.7 °C 30.04 in /  1017.2 hPa Calm     65 % 0.00 in /  0 mm
20:27 57.4 °F /  14.1 °C 45.7 °F /  7.6 °C 30.04 in /  1017.2 hPa Calm     65 % 0.00 in /  0 mm
20:32 57.3 °F /  14.1 °C 45.6 °F /  7.6 °C 30.04 in /  1017.2 hPa Calm     65 % 0.00 in /  0 mm
20:37 57.2 °F /  14 °C 45.1 °F /  7.3 °C 30.04 in /  1017.2 hPa Calm     64 % 0.00 in /  0 mm
20:42 57.1 °F /  13.9 °C 45.8 °F /  7.7 °C 30.04 in /  1017.2 hPa Calm     66 % 0.00 in /  0 mm
20:47 56.8 °F /  13.8 °C 46.7 °F /  8.2 °C 30.05 in /  1017.5 hPa Calm     69 % 0.00 in /  0 mm
20:52 56.7 °F /  13.7 °C 47.0 °F /  8.3 °C 30.05 in /  1017.5 hPa Calm     70 % 0.00 in /  0 mm
20:57 56.4 °F /  13.6 °C 46.4 °F /  8 °C 30.05 in /  1017.5 hPa Calm     69 % 0.00 in /  0 mm
21:02 56.2 °F /  13.4 °C 45.8 °F /  7.7 °C 30.05 in /  1017.5 hPa Calm     68 % 0.00 in /  0 mm
21:07 56.0 °F /  13.3 °C 46.0 °F /  7.8 °C 30.05 in /  1017.5 hPa Calm     69 % 0.00 in /  0 mm
21:08 56.0 °F /  13.3 °C 46.0 °F /  7.8 °C 30.05 in /  1017.5 hPa Calm     69 % 0.00 in /  0 mm
21:13 55.7 °F /  13.2 °C 46.1 °F /  7.8 °C 30.05 in /  1017.5 hPa Calm     70 % 0.00 in /  0 mm
21:18 55.5 °F /  13.1 °C 46.2 °F /  7.9 °C 30.05 in /  1017.5 hPa Calm     71 % 0.00 in /  0 mm
21:23 55.2 °F /  12.9 °C 46.7 °F /  8.2 °C 30.05 in /  1017.5 hPa Calm     73 % 0.00 in /  0 mm
21:28 54.9 °F /  12.7 °C 46.4 °F /  8 °C 30.05 in /  1017.5 hPa Calm     73 % 0.00 in /  0 mm
21:33 54.5 °F /  12.5 °C 46.0 °F /  7.8 °C 30.06 in /  1017.8 hPa Calm     73 % 0.00 in /  0 mm
21:38 54.2 °F /  12.3 °C 46.1 °F /  7.8 °C 30.05 in /  1017.5 hPa Calm     74 % 0.00 in /  0 mm
21:43 54.0 °F /  12.2 °C 45.9 °F /  7.7 °C 30.06 in /  1017.8 hPa Calm     74 % 0.00 in /  0 mm
21:48 53.9 °F /  12.2 °C 46.2 °F /  7.9 °C 30.06 in /  1017.8 hPa Calm     75 % 0.00 in /  0 mm
21:53 53.8 °F /  12.1 °C 46.4 °F /  8 °C 30.06 in /  1017.8 hPa Calm     76 % 0.00 in /  0 mm
21:55 53.8 °F /  12.1 °C 46.4 °F /  8 °C 30.06 in /  1017.8 hPa Calm     76 % 0.00 in /  0 mm
22:00 53.8 °F /  12.1 °C 46.4 °F /  8 °C 30.06 in /  1017.8 hPa Calm     76 % 0.00 in /  0 mm
22:05 53.6 °F /  12 °C 46.6 °F /  8.1 °C 30.07 in /  1018.2 hPa Calm     77 % 0.00 in /  0 mm
22:10 53.4 °F /  11.9 °C 46.4 °F /  8 °C 30.07 in /  1018.2 hPa Calm     77 % 0.00 in /  0 mm
22:15 53.2 °F /  11.8 °C 46.5 °F /  8.1 °C 30.07 in /  1018.2 hPa Calm     78 % 0.00 in /  0 mm
22:20 52.8 °F /  11.6 °C 46.1 °F /  7.8 °C 30.07 in /  1018.2 hPa Calm     78 % 0.00 in /  0 mm
22:25 52.6 °F /  11.4 °C 46.3 °F /  7.9 °C 30.07 in /  1018.2 hPa Calm     79 % 0.00 in /  0 mm
22:30 52.6 °F /  11.4 °C 46.3 °F /  7.9 °C 30.07 in /  1018.2 hPa Calm     79 % 0.00 in /  0 mm
22:35 52.9 °F /  11.6 °C 46.2 °F /  7.9 °C 30.07 in /  1018.2 hPa Calm     78 % 0.00 in /  0 mm
22:40 53.2 °F /  11.8 °C 46.2 °F /  7.9 °C 30.07 in /  1018.2 hPa Calm     77 % 0.00 in /  0 mm
22:46 53.4 °F /  11.9 °C 46.0 °F /  7.8 °C 30.07 in /  1018.2 hPa Calm     76 % 0.00 in /  0 mm
22:51 53.4 °F /  11.9 °C 45.3 °F /  7.4 °C 30.07 in /  1018.2 hPa Calm     74 % 0.00 in /  0 mm
22:56 53.2 °F /  11.8 °C 45.5 °F /  7.5 °C 30.07 in /  1018.2 hPa Calm     75 % 0.00 in /  0 mm
23:01 53.0 °F /  11.7 °C 45.3 °F /  7.4 °C 30.07 in /  1018.2 hPa Calm     75 % 0.00 in /  0 mm
23:06 52.7 °F /  11.5 °C 44.6 °F /  7 °C 30.07 in /  1018.2 hPa Calm     74 % 0.00 in /  0 mm
23:11 52.9 °F /  11.6 °C 44.5 °F /  6.9 °C 30.07 in /  1018.2 hPa Calm     73 % 0.00 in /  0 mm
23:16 52.9 °F /  11.6 °C 44.5 °F /  6.9 °C 30.07 in /  1018.2 hPa Calm     73 % 0.00 in /  0 mm
23:21 52.7 °F /  11.5 °C 43.9 °F /  6.6 °C 30.06 in /  1017.8 hPa Calm     72 % 0.00 in /  0 mm
23:26 52.6 °F /  11.4 °C 44.2 °F /  6.8 °C 30.06 in /  1017.8 hPa Calm     73 % 0.00 in /  0 mm
23:31 52.4 °F /  11.3 °C 45.1 °F /  7.3 °C 30.07 in /  1018.2 hPa Calm     76 % 0.00 in /  0 mm
23:36 52.1 °F /  11.2 °C 44.8 °F /  7.1 °C 30.06 in /  1017.8 hPa Calm     76 % 0.00 in /  0 mm
23:41 51.7 °F /  10.9 °C 44.7 °F /  7.1 °C 30.06 in /  1017.8 hPa Calm     77 % 0.00 in /  0 mm
23:46 51.3 °F /  10.7 °C 44.3 °F /  6.8 °C 30.06 in /  1017.8 hPa Calm     77 % 0.00 in /  0 mm
23:51 51.0 °F /  10.6 °C 44.4 °F /  6.9 °C 30.06 in /  1017.8 hPa Calm     78 % 0.00 in /  0 mm
23:56 50.6 °F /  10.3 °C 44.0 °F /  6.7 °C 30.06 in /  1017.8 hPa Calm     78 % 0.00 in /  0 mm
Park Place, Exeter, Tulare County, California, USA
Compliments of Weather Underground - 2.75 mb